Weather at Appleton Field

Public forecast

Using degrees Celsius for public forecast. Weather courtesy of forecast.io.

Closest aviation weather report (METAR) to Appleton Field

Closest report is Calgary International Airport, 25.6 nm (47.4 km) WNW. Retrieved 2021/01/19 10:00 UTC (38 minutes ago):

CYYC 191000Z VRB02KT 15SM FEW210 M08/M12 A3021 RMK CI1 CI TR SLP287

Closest aviation forecast (TAF) to Appleton Field

Closest forecast is Calgary International Airport, 25.6 nm (47.4 km) WNW. Retrieved 2021/01/19 09:39 UTC (59 minutes ago):

TAF CYYC 190838Z 1909/2006 20005KT P6SM FEW220 FM191500 26012KT P6SM SCT120 BKN220 BECMG 1917/1919 26015G25KT FM192100 26015G25KT P6SM SCT220 FM200200 28015KT P6SM SKC RMK NXT FCST BY 191200Z